createdAt,value
2016-05-10T00:00:08.436Z,1005.58
2016-05-10T00:01:08.455Z,1005.56
2016-05-10T00:02:08.457Z,1005.58
2016-05-10T00:03:08.460Z,1005.6
2016-05-10T00:04:08.479Z,1005.59
2016-05-10T00:05:08.482Z,1005.59
2016-05-10T00:06:08.484Z,1005.53
2016-05-10T00:07:08.502Z,1005.57
2016-05-10T00:08:08.521Z,1005.53
2016-05-10T00:09:08.507Z,1005.52
2016-05-10T00:10:08.510Z,1005.56
2016-05-10T00:11:08.529Z,1005.51
2016-05-10T00:12:08.532Z,1005.51
2016-05-10T00:13:08.561Z,1005.47
2016-05-10T00:14:08.605Z,1005.49
2016-05-10T00:15:08.664Z,1005.48
2016-05-10T00:16:08.708Z,1005.46
2016-05-10T00:17:08.752Z,1005.49
2016-05-10T00:18:08.794Z,1005.43
2016-05-10T00:19:08.811Z,1005.41
2016-05-10T00:20:08.828Z,1005.47
2016-05-10T00:21:08.862Z,1005.45
2016-05-10T00:22:08.879Z,1005.45
2016-05-10T00:23:08.890Z,1005.49
2016-05-10T00:24:08.898Z,1005.47
2016-05-10T00:25:08.922Z,1005.47
2016-05-10T00:26:08.929Z,1005.48
2016-05-10T00:27:08.937Z,1005.44
2016-05-10T00:28:08.959Z,1005.45
2016-05-10T00:29:08.964Z,1005.43
2016-05-10T00:30:08.969Z,1005.45
2016-05-10T00:31:08.989Z,1005.38
2016-05-10T00:32:08.994Z,1005.42
2016-05-10T00:33:08.997Z,1005.4
2016-05-10T00:34:09.001Z,1005.35
2016-05-10T00:35:09.019Z,1005.35
2016-05-10T00:36:09.023Z,1005.39
2016-05-10T00:37:09.026Z,1005.33
2016-05-10T00:38:09.045Z,1005.37
2016-05-10T00:39:09.049Z,1005.34
2016-05-10T00:40:09.051Z,1005.29
2016-05-10T00:41:09.054Z,1005.24
2016-05-10T00:42:09.072Z,1005.26
2016-05-10T00:43:09.075Z,1005.26
2016-05-10T00:44:09.078Z,1005.25
2016-05-10T00:45:09.080Z,1005.25
2016-05-10T00:46:09.116Z,1005.27
2016-05-10T00:47:09.102Z,1005.27
2016-05-10T00:48:09.105Z,1005.25
2016-05-10T00:49:09.124Z,1005.24
2016-05-10T00:50:09.126Z,1005.25
2016-05-10T00:51:09.129Z,1005.2
2016-05-10T00:52:09.131Z,1005.23
2016-05-10T00:53:09.149Z,1005.25
2016-05-10T00:54:09.152Z,1005.18
2016-05-10T00:55:09.155Z,1005.17
2016-05-10T00:56:09.174Z,1005.19
2016-05-10T00:57:09.176Z,1005.13
2016-05-10T00:58:09.179Z,1005.15
2016-05-10T00:59:09.197Z,1005.19
2016-05-10T01:00:09.200Z,1005.13
2016-05-10T01:01:09.203Z,1005.12
2016-05-10T01:02:09.205Z,1005.11
2016-05-10T01:03:09.223Z,1005.1
2016-05-10T01:04:09.226Z,1005.08
2016-05-10T01:05:09.229Z,1005.06
2016-05-10T01:06:09.247Z,1005.1
2016-05-10T01:07:09.250Z,1005.05
2016-05-10T01:08:09.253Z,1005.09
2016-05-10T01:09:09.255Z,1005.04
2016-05-10T01:10:09.273Z,1005.03
2016-05-10T01:11:09.276Z,1005.07
2016-05-10T01:12:09.278Z,1005.05
2016-05-10T01:13:09.297Z,1005.01
2016-05-10T01:14:09.331Z,1005.03
2016-05-10T01:15:09.303Z,1005
2016-05-10T01:16:09.305Z,1004.99
2016-05-10T01:17:09.324Z,1005.05
2016-05-10T01:18:09.327Z,1005
2016-05-10T01:19:09.344Z,1005.01
2016-05-10T01:20:09.347Z,1005.05
2016-05-10T01:21:09.350Z,1005
2016-05-10T01:22:09.352Z,1004.98
2016-05-10T01:23:09.371Z,1004.98
2016-05-10T01:24:09.374Z,1004.94
2016-05-10T01:25:09.377Z,1004.93
2016-05-10T01:26:09.379Z,1004.97
2016-05-10T01:27:09.398Z,1004.94
2016-05-10T01:28:09.400Z,1004.9
2016-05-10T01:29:09.699Z,1004.9
2016-05-10T01:30:09.421Z,1004.94
2016-05-10T01:31:09.423Z,1004.94
2016-05-10T01:32:09.426Z,1004.93
2016-05-10T01:33:09.445Z,1004.89
2016-05-10T01:34:09.448Z,1004.89
2016-05-10T01:35:09.450Z,1004.88
2016-05-10T01:36:09.453Z,1004.88
2016-05-10T01:37:09.471Z,1004.89
2016-05-10T01:38:09.473Z,1004.9
2016-05-10T01:39:09.476Z,1004.88
2016-05-10T01:40:09.479Z,1004.88
2016-05-10T01:41:09.498Z,1004.85
2016-05-10T01:42:09.500Z,1004.85
2016-05-10T01:43:09.503Z,1004.85
2016-05-10T01:44:09.521Z,1004.84
2016-05-10T01:45:09.946Z,1004.77
2016-05-10T01:46:09.527Z,1004.78
2016-05-10T01:47:09.545Z,1004.78
2016-05-10T01:48:09.548Z,1004.79
2016-05-10T01:49:09.550Z,1004.77
2016-05-10T01:50:09.552Z,1004.76
2016-05-10T01:51:09.571Z,1004.75
2016-05-10T01:52:09.574Z,1004.74
2016-05-10T01:53:09.577Z,1004.72
2016-05-10T01:54:09.596Z,1004.73
2016-05-10T01:55:09.598Z,1004.73
2016-05-10T01:56:09.601Z,1004.7
2016-05-10T01:57:09.618Z,1004.69
2016-05-10T01:58:09.622Z,1004.7
2016-05-10T01:59:09.624Z,1004.64
2016-05-10T02:00:09.627Z,1004.66
2016-05-10T02:01:09.629Z,1004.64
2016-05-10T02:02:09.648Z,1004.65
2016-05-10T02:03:09.650Z,1004.65
2016-05-10T02:04:09.668Z,1004.63
2016-05-10T02:05:09.656Z,1004.63
2016-05-10T02:06:09.674Z,1004.63
2016-05-10T02:07:09.677Z,1004.62
2016-05-10T02:08:09.679Z,1004.64
2016-05-10T02:09:09.697Z,1004.62
2016-05-10T02:10:09.700Z,1004.63
2016-05-10T02:11:09.703Z,1004.59
2016-05-10T02:12:09.706Z,1004.59
2016-05-10T02:13:09.725Z,1004.57
2016-05-10T02:14:09.727Z,1004.58
2016-05-10T02:15:09.730Z,1004.56
2016-05-10T02:16:09.747Z,1004.56
2016-05-10T02:17:09.750Z,1004.57
2016-05-10T02:18:09.753Z,1004.55
2016-05-10T02:19:09.756Z,1004.55
2016-05-10T02:20:09.774Z,1004.52
2016-05-10T02:21:09.777Z,1004.52
2016-05-10T02:22:09.780Z,1004.55
2016-05-10T02:23:09.798Z,1004.52
2016-05-10T02:24:09.801Z,1004.51
2016-05-10T02:25:09.804Z,1004.51
2016-05-10T02:26:09.822Z,1004.53
2016-05-10T02:27:09.824Z,1004.49
2016-05-10T02:28:09.827Z,1004.49
2016-05-10T02:29:09.830Z,1004.51
2016-05-10T02:30:09.848Z,1004.51
2016-05-10T02:31:09.851Z,1004.49
2016-05-10T02:32:09.853Z,1004.49
2016-05-10T02:33:09.856Z,1004.52
2016-05-10T02:34:09.874Z,1004.48
2016-05-10T02:35:09.877Z,1004.5
2016-05-10T02:36:09.880Z,1004.49
2016-05-10T02:37:09.898Z,1004.46
2016-05-10T02:38:09.900Z,1004.43
2016-05-10T02:39:09.903Z,1004.48
2016-05-10T02:40:09.906Z,1004.45
2016-05-10T02:41:09.925Z,1004.47
2016-05-10T02:42:09.928Z,1004.5
2016-05-10T02:43:09.961Z,1004.48
2016-05-10T02:44:09.948Z,1004.48
2016-05-10T02:45:09.950Z,1004.51
2016-05-10T02:46:09.954Z,1004.57
2016-05-10T02:47:09.956Z,1004.61
2016-05-10T02:48:09.974Z,1004.62
2016-05-10T02:49:09.994Z,1004.61
2016-05-10T02:50:09.980Z,1004.59
2016-05-10T02:51:09.998Z,1004.58
2016-05-10T02:52:10.002Z,1004.58
2016-05-10T02:53:10.004Z,1004.59
2016-05-10T02:54:10.007Z,1004.58
2016-05-10T02:55:10.025Z,1004.53
2016-05-10T02:56:10.027Z,1004.48
2016-05-10T02:57:10.030Z,1004.45
2016-05-10T02:58:10.048Z,1004.44
2016-05-10T02:59:10.051Z,1004.42
2016-05-10T03:00:10.054Z,1004.41
2016-05-10T03:01:10.056Z,1004.41
2016-05-10T03:02:10.075Z,1004.42
2016-05-10T03:03:10.077Z,1004.43
2016-05-10T03:04:10.080Z,1004.44
2016-05-10T03:05:10.098Z,1004.49
2016-05-10T03:06:10.101Z,1004.47
2016-05-10T03:07:10.104Z,1004.47
2016-05-10T03:08:10.106Z,1004.44
2016-05-10T03:09:10.125Z,1004.48
2016-05-10T03:10:10.128Z,1004.47
2016-05-10T03:11:10.130Z,1004.46
2016-05-10T03:12:10.133Z,1004.46
2016-05-10T03:13:10.151Z,1004.43
2016-05-10T03:14:10.154Z,1004.43
2016-05-10T03:15:10.156Z,1004.42
2016-05-10T03:16:10.175Z,1004.4
2016-05-10T03:17:10.193Z,1004.37
2016-05-10T03:18:10.181Z,1004.43
2016-05-10T03:19:10.183Z,1004.41
2016-05-10T03:20:10.201Z,1004.43
2016-05-10T03:21:10.205Z,1004.46
2016-05-10T03:22:10.207Z,1004.46
2016-05-10T03:23:10.224Z,1004.43
2016-05-10T03:24:10.227Z,1004.41
2016-05-10T03:25:10.230Z,1004.42
2016-05-10T03:26:10.233Z,1004.37
2016-05-10T03:27:10.252Z,1004.4
2016-05-10T03:28:10.254Z,1004.39
2016-05-10T03:29:10.257Z,1004.37
2016-05-10T03:30:10.275Z,1004.33
2016-05-10T03:31:10.277Z,1004.37
2016-05-10T03:32:10.280Z,1004.31
2016-05-10T03:33:10.283Z,1004.35
2016-05-10T03:34:10.301Z,1004.36
2016-05-10T03:35:10.304Z,1004.37
2016-05-10T03:36:10.307Z,1004.37
2016-05-10T03:37:10.309Z,1004.38
2016-05-10T03:38:10.329Z,1004.4
2016-05-10T03:39:10.330Z,1004.39
2016-05-10T03:40:10.348Z,1004.38
2016-05-10T03:41:10.351Z,1004.38
2016-05-10T03:42:10.354Z,1004.36
2016-05-10T03:43:10.357Z,1004.32
2016-05-10T03:44:10.578Z,1004.34
2016-05-10T03:45:10.378Z,1004.35
2016-05-10T03:46:10.381Z,1004.29
2016-05-10T03:47:10.383Z,1004.29
2016-05-10T03:48:10.386Z,1004.3
2016-05-10T03:49:10.405Z,1004.3
2016-05-10T03:50:10.408Z,1004.28
2016-05-10T03:51:10.410Z,1004.3
2016-05-10T03:52:10.427Z,1004.28
2016-05-10T03:53:10.430Z,1004.3
2016-05-10T03:54:10.433Z,1004.26
2016-05-10T03:55:10.436Z,1004.27
2016-05-10T03:56:10.470Z,1004.24
2016-05-10T03:57:10.458Z,1004.14
2016-05-10T03:58:10.460Z,1004.19
2016-05-10T03:59:10.962Z,1004.25
2016-05-10T04:00:10.480Z,1004.19
2016-05-10T04:01:10.483Z,1004.15
2016-05-10T04:02:10.502Z,1004.24
2016-05-10T04:03:10.488Z,1004.26
2016-05-10T04:04:10.507Z,1004.22
2016-05-10T04:05:10.509Z,1004.22
2016-05-10T04:06:10.512Z,1004.22
2016-05-10T04:07:10.531Z,1004.22
2016-05-10T04:08:10.534Z,1004.21
2016-05-10T04:09:10.537Z,1004.21
2016-05-10T04:10:10.554Z,1004.19
2016-05-10T04:11:10.557Z,1004.15
2016-05-10T04:12:10.560Z,1004.13
2016-05-10T04:13:10.562Z,1004.18
2016-05-10T04:14:10.862Z,1004.13
2016-05-10T04:15:10.584Z,1004.14
2016-05-10T04:16:10.586Z,1004.09
2016-05-10T04:17:10.589Z,1004.1
2016-05-10T04:18:10.592Z,1004.11
2016-05-10T04:19:10.610Z,1004.11
2016-05-10T04:20:10.613Z,1004.08
2016-05-10T04:21:10.615Z,1004.1
2016-05-10T04:22:10.633Z,1004.12
2016-05-10T04:23:10.636Z,1004.13
2016-05-10T04:24:10.639Z,1004.11
2016-05-10T04:25:10.642Z,1004.09
2016-05-10T04:26:10.661Z,1004.13
2016-05-10T04:27:10.663Z,1004.09
2016-05-10T04:28:10.665Z,1004.11
2016-05-10T04:29:10.683Z,1004.14
2016-05-10T04:30:10.686Z,1004.13
2016-05-10T04:31:10.689Z,1004.12
2016-05-10T04:32:10.692Z,1004.15
2016-05-10T04:33:10.710Z,1004.11
2016-05-10T04:34:10.712Z,1004.11
2016-05-10T04:35:10.716Z,1004.1
2016-05-10T04:36:10.718Z,1004.1
2016-05-10T04:37:10.737Z,1004.08
2016-05-10T04:38:10.740Z,1004.09
2016-05-10T04:39:10.742Z,1004.09
2016-05-10T04:40:10.760Z,1004.11
2016-05-10T04:41:10.747Z,1004.09
2016-05-10T04:42:10.765Z,1004.07
2016-05-10T04:43:10.768Z,1004.07
2016-05-10T04:44:10.771Z,1004.09
2016-05-10T04:45:10.774Z,1004.09
2016-05-10T04:46:10.792Z,1004.09
2016-05-10T04:47:10.794Z,1004.09
2016-05-10T04:48:10.797Z,1004.1
2016-05-10T04:49:10.816Z,1004.1
2016-05-10T04:50:10.819Z,1004.1
2016-05-10T04:51:10.822Z,1004.13
2016-05-10T04:52:10.824Z,1004.16
2016-05-10T04:53:10.841Z,1004.13
2016-05-10T04:54:10.844Z,1004.09
2016-05-10T04:55:10.847Z,1004.16
2016-05-10T04:56:10.866Z,1004.14
2016-05-10T04:57:10.868Z,1004.15
2016-05-10T04:58:10.872Z,1004.14
2016-05-10T04:59:10.874Z,1004.18
2016-05-10T05:00:10.877Z,1004.17
2016-05-10T05:01:10.895Z,1004.16
2016-05-10T05:02:10.897Z,1004.16
2016-05-10T05:03:10.900Z,1004.17
2016-05-10T05:04:10.918Z,1004.19
2016-05-10T05:05:10.921Z,1004.12
2016-05-10T05:06:10.924Z,1004.19
2016-05-10T05:07:10.942Z,1004.14
2016-05-10T05:08:10.945Z,1004.09
2016-05-10T05:09:10.948Z,1004.14
2016-05-10T05:10:10.950Z,1004.15
2016-05-10T05:11:10.969Z,1004.13
2016-05-10T05:12:10.971Z,1004.16
2016-05-10T05:13:10.973Z,1004.13
2016-05-10T05:14:11.009Z,1004.17
2016-05-10T05:15:10.995Z,1004.16
2016-05-10T05:16:10.997Z,1004.14
2016-05-10T05:17:11.001Z,1004.14
2016-05-10T05:18:11.019Z,1004.14
2016-05-10T05:19:11.022Z,1004.13
2016-05-10T05:20:11.024Z,1004.12
2016-05-10T05:21:11.027Z,1004.17
2016-05-10T05:22:11.045Z,1004.18
2016-05-10T05:23:11.047Z,1004.17
2016-05-10T05:24:11.050Z,1004.18
2016-05-10T05:25:11.069Z,1004.16
2016-05-10T05:26:11.072Z,1004.11
2016-05-10T05:27:11.074Z,1004.11
2016-05-10T05:28:11.077Z,1004.05
2016-05-10T05:29:11.094Z,1004.08
2016-05-10T05:30:11.097Z,1004.09
2016-05-10T05:31:11.116Z,1004.09
2016-05-10T05:32:11.118Z,1004.01
2016-05-10T05:33:11.122Z,1004.04
2016-05-10T05:34:11.125Z,1003.99
2016-05-10T05:35:11.143Z,1004.02
2016-05-10T05:36:11.145Z,1004.02
2016-05-10T05:37:11.148Z,1004.08
2016-05-10T05:38:11.166Z,1004.1
2016-05-10T05:39:11.168Z,1004.17
2016-05-10T05:40:11.171Z,1004.16
2016-05-10T05:41:11.190Z,1004.18
2016-05-10T05:42:11.193Z,1004.22
2016-05-10T05:43:11.617Z,1004.19
2016-05-10T05:44:11.401Z,1004.14
2016-05-10T05:45:11.217Z,1004.23
2016-05-10T05:46:11.219Z,1004.2
2016-05-10T05:47:11.237Z,1004.22
2016-05-10T05:48:11.240Z,1004.25
2016-05-10T05:49:11.242Z,1004.27
2016-05-10T05:50:11.246Z,1004.29
2016-05-10T05:51:11.264Z,1004.28
2016-05-10T05:52:11.266Z,1004.39
2016-05-10T05:53:11.269Z,1004.38
2016-05-10T05:54:11.287Z,1004.46
2016-05-10T05:55:11.289Z,1004.45
2016-05-10T05:56:11.308Z,1004.51
2016-05-10T05:57:11.311Z,1004.47
2016-05-10T05:58:11.329Z,1004.43
2016-05-10T05:59:11.347Z,1004.45
2016-05-10T06:00:11.335Z,1004.56
2016-05-10T06:01:11.353Z,1004.56
2016-05-10T06:02:11.355Z,1004.61
2016-05-10T06:03:11.358Z,1004.65
2016-05-10T06:04:11.361Z,1004.75
2016-05-10T06:05:11.380Z,1004.74
2016-05-10T06:06:11.382Z,1004.78
2016-05-10T06:07:11.401Z,1004.7
2016-05-10T06:08:11.404Z,1004.68
2016-05-10T06:09:11.407Z,1004.67
2016-05-10T06:10:11.423Z,1004.64
2016-05-10T06:11:11.426Z,1004.65
2016-05-10T06:12:11.445Z,1004.75
2016-05-10T06:13:11.448Z,1004.87
2016-05-10T06:14:11.451Z,1004.94
2016-05-10T06:15:11.469Z,1004.94
2016-05-10T06:16:11.471Z,1004.87
2016-05-10T06:17:11.473Z,1004.61
2016-05-10T06:18:11.492Z,1004.99
2016-05-10T06:19:11.495Z,1004.89
2016-05-10T06:20:11.514Z,1004.72
2016-05-10T06:21:11.517Z,1004.61
2016-05-10T06:22:11.520Z,1004.74
2016-05-10T06:23:11.537Z,1004.75
2016-05-10T06:24:11.540Z,1004.83
2016-05-10T06:25:11.558Z,1004.91
2016-05-10T06:26:11.577Z,1004.96
2016-05-10T06:27:11.579Z,1005.1
2016-05-10T06:28:11.583Z,1005.18
2016-05-10T06:29:11.585Z,1004.93
2016-05-10T06:30:11.603Z,1004.9
2016-05-10T06:31:11.605Z,1004.83
2016-05-10T06:32:11.625Z,1004.99
2016-05-10T06:33:11.626Z,1004.94
2016-05-10T06:34:11.644Z,1004.84
2016-05-10T06:35:11.647Z,1004.88
2016-05-10T06:36:11.650Z,1004.89
2016-05-10T06:37:11.668Z,1004.98
2016-05-10T06:38:11.672Z,1004.94
2016-05-10T06:39:11.690Z,1004.85
2016-05-10T06:40:11.692Z,1004.76
2016-05-10T06:41:11.710Z,1004.71
2016-05-10T06:42:11.713Z,1004.68
2016-05-10T06:43:11.732Z,1004.54
2016-05-10T06:44:11.860Z,1004.55
2016-05-10T06:45:11.737Z,1004.48
2016-05-10T06:46:11.756Z,1004.49
2016-05-10T06:47:11.759Z,1004.47
2016-05-10T06:48:11.776Z,1004.45
2016-05-10T06:49:11.779Z,1004.41
2016-05-10T06:50:11.782Z,1004.41
2016-05-10T06:51:11.800Z,1004.45
2016-05-10T06:52:11.803Z,1004.46
2016-05-10T06:53:11.821Z,1004.45
2016-05-10T06:54:11.824Z,1004.48
2016-05-10T06:55:11.826Z,1004.49
2016-05-10T06:56:11.860Z,1004.51
2016-05-10T06:57:11.847Z,1004.45
2016-05-10T06:58:11.866Z,1004.44
2016-05-10T06:59:11.869Z,1004.39
2016-05-10T07:00:11.886Z,1004.33
2016-05-10T07:01:11.889Z,1004.36
2016-05-10T07:02:11.907Z,1004.28
2016-05-10T07:03:11.911Z,1004.23
2016-05-10T07:04:11.913Z,1004.16
2016-05-10T07:05:11.932Z,1004.14
2016-05-10T07:06:11.934Z,1004.09
2016-05-10T07:07:11.952Z,1004.1
2016-05-10T07:08:11.955Z,1004.15
2016-05-10T07:09:11.957Z,1004.3
2016-05-10T07:10:11.977Z,1004.2
2016-05-10T07:11:11.979Z,1004.17
2016-05-10T07:12:11.996Z,1004.16
2016-05-10T07:13:11.999Z,1004.14
2016-05-10T07:14:12.049Z,1004.13
2016-05-10T07:15:12.021Z,1004.12
2016-05-10T07:16:12.024Z,1004.08
2016-05-10T07:17:12.042Z,1004.07
2016-05-10T07:18:12.045Z,1004.08
2016-05-10T07:19:12.047Z,1004.05
2016-05-10T07:20:12.066Z,1004.05
2016-05-10T07:21:12.068Z,1004.04
2016-05-10T07:22:12.086Z,1004.09
2016-05-10T07:23:12.089Z,1004.09
2016-05-10T07:24:12.092Z,1004.1
2016-05-10T07:25:12.111Z,1004.06
2016-05-10T07:26:12.114Z,1004.09
2016-05-10T07:27:12.131Z,1004.07
2016-05-10T07:28:12.134Z,1004.05
2016-05-10T07:29:12.152Z,1004.11
2016-05-10T07:30:12.155Z,1004.09
2016-05-10T07:31:12.157Z,1004.09
2016-05-10T07:32:12.175Z,1004.09
2016-05-10T07:33:12.178Z,1004.11
2016-05-10T07:34:12.181Z,1004.11
2016-05-10T07:35:12.200Z,1004.07
2016-05-10T07:36:12.202Z,1004.09
2016-05-10T07:37:12.205Z,1004.07
2016-05-10T07:38:12.223Z,1004.06
2016-05-10T07:39:12.226Z,1004.05
2016-05-10T07:40:12.244Z,1004.06
2016-05-10T07:41:12.246Z,1004.11
2016-05-10T07:42:12.249Z,1004.11
2016-05-10T07:43:12.268Z,1004.08
2016-05-10T07:44:12.271Z,1004.08
2016-05-10T07:45:12.274Z,1004.1
2016-05-10T07:46:12.292Z,1004.13
2016-05-10T07:47:12.295Z,1004.1
2016-05-10T07:48:12.312Z,1004.1
2016-05-10T07:49:12.315Z,1004.13
2016-05-10T07:50:12.318Z,1004.11
2016-05-10T07:51:12.337Z,1004.13
2016-05-10T07:52:12.339Z,1004.11
2016-05-10T07:53:12.342Z,1004.08
2016-05-10T07:54:12.360Z,1004.08
2016-05-10T07:55:12.363Z,1004.06
2016-05-10T07:56:12.381Z,1004.07
2016-05-10T07:57:12.384Z,1004.1
2016-05-10T07:58:12.386Z,1004.07
2016-05-10T07:59:12.389Z,1004.12
2016-05-10T08:00:12.423Z,1004.06
2016-05-10T08:01:12.410Z,1004.1
2016-05-10T08:02:12.428Z,1004.08
2016-05-10T08:03:12.431Z,1004.11
2016-05-10T08:04:12.433Z,1004.15
2016-05-10T08:05:12.452Z,1004.14
2016-05-10T08:06:12.455Z,1004.14
2016-05-10T08:07:12.474Z,1004.17
2016-05-10T08:08:12.476Z,1004.16
2016-05-10T08:09:12.479Z,1004.15
2016-05-10T08:10:12.497Z,1004.17
2016-05-10T08:11:12.499Z,1004.18
2016-05-10T08:12:12.502Z,1004.14
2016-05-10T08:13:12.521Z,1004.19
2016-05-10T08:14:12.523Z,1004.21
2016-05-10T08:15:12.526Z,1004.17
2016-05-10T08:16:12.544Z,1004.19
2016-05-10T08:17:12.546Z,1004.18
2016-05-10T08:18:12.549Z,1004.16
2016-05-10T08:19:12.568Z,1004.17
2016-05-10T08:20:12.571Z,1004.15
2016-05-10T08:21:12.589Z,1004.17
2016-05-10T08:22:12.592Z,1004.15
2016-05-10T08:23:12.610Z,1004.12
2016-05-10T08:24:12.613Z,1004.14
2016-05-10T08:25:12.615Z,1004.13
2016-05-10T08:26:12.617Z,1004.12
2016-05-10T08:27:12.636Z,1004.1
2016-05-10T08:28:12.639Z,1004.14
2016-05-10T08:29:12.642Z,1004.09
2016-05-10T08:30:12.660Z,1004.1
2016-05-10T08:31:12.663Z,1004.14
2016-05-10T08:32:12.681Z,1004.1
2016-05-10T08:33:12.683Z,1004.13
2016-05-10T08:34:12.687Z,1004.15
2016-05-10T08:35:12.705Z,1004.14
2016-05-10T08:36:12.707Z,1004.13
2016-05-10T08:37:12.725Z,1004.15
2016-05-10T08:38:12.728Z,1004.16
2016-05-10T08:39:12.730Z,1004.15
2016-05-10T08:40:12.733Z,1004.14
2016-05-10T08:41:12.752Z,1004.17
2016-05-10T08:42:12.754Z,1004.16
2016-05-10T08:43:12.773Z,1004.14
2016-05-10T08:44:12.776Z,1004.15
2016-05-10T08:45:12.779Z,1004.17
2016-05-10T08:46:12.812Z,1004.17
2016-05-10T08:47:12.799Z,1004.11
2016-05-10T08:48:12.818Z,1004.16
2016-05-10T08:49:12.821Z,1004.18
2016-05-10T08:50:12.823Z,1004.15
2016-05-10T08:51:12.842Z,1004.15
2016-05-10T08:52:12.845Z,1004.13
2016-05-10T08:53:12.848Z,1004.13
2016-05-10T08:54:12.865Z,1004.13
2016-05-10T08:55:12.868Z,1004.16
2016-05-10T08:56:12.871Z,1004.14
2016-05-10T08:57:12.889Z,1004.11
2016-05-10T08:58:12.892Z,1004.12
2016-05-10T08:59:12.894Z,1004.11
2016-05-10T09:00:12.912Z,1004.15
2016-05-10T09:01:12.915Z,1004.12
2016-05-10T09:02:12.933Z,1004.09
2016-05-10T09:03:12.936Z,1004.11
2016-05-10T09:04:12.938Z,1004.13
2016-05-10T09:05:12.957Z,1004.12
2016-05-10T09:06:12.961Z,1004.13
2016-05-10T09:07:12.963Z,1004.16
2016-05-10T09:08:12.981Z,1004.14
2016-05-10T09:09:12.984Z,1004.11
2016-05-10T09:10:13.002Z,1004.18
2016-05-10T09:11:13.005Z,1004.15
2016-05-10T09:12:13.008Z,1004.14
2016-05-10T09:13:13.026Z,1004.13
2016-05-10T09:14:13.279Z,1004.1
2016-05-10T09:15:15.094Z,1004.18
2016-05-10T09:16:13.049Z,1004.16
2016-05-10T09:17:13.052Z,1004.14
2016-05-10T09:18:13.071Z,1004.16
2016-05-10T09:19:13.110Z,1004.16
2016-05-10T09:20:13.155Z,1004.14
2016-05-10T09:21:13.214Z,1004.13
2016-05-10T09:22:13.258Z,1004.15
2016-05-10T09:23:13.302Z,1004.15
2016-05-10T09:24:14.588Z,1004.12
2016-05-10T09:25:13.356Z,1004.15
2016-05-10T09:26:13.390Z,1004.21
2016-05-10T09:27:13.408Z,1004.17
2016-05-10T09:28:13.425Z,1004.18
2016-05-10T09:29:13.449Z,1004.15
2016-05-10T09:30:13.630Z,1004.15
2016-05-10T09:31:13.465Z,1004.15
2016-05-10T09:32:13.490Z,1004.15
2016-05-10T09:33:13.497Z,1004.12
2016-05-10T09:34:13.519Z,1004.12
2016-05-10T09:35:13.523Z,1004.11
2016-05-10T09:36:13.527Z,1004.09
2016-05-10T09:37:13.547Z,1004.1
2016-05-10T09:38:13.552Z,1004.16
2016-05-10T09:39:13.555Z,1004.1
2016-05-10T09:40:13.575Z,1004.09
2016-05-10T09:41:13.578Z,1004.12
2016-05-10T09:42:13.582Z,1004.13
2016-05-10T09:43:13.601Z,1004.12
2016-05-10T09:44:13.619Z,1004.09
2016-05-10T09:45:13.623Z,1004.11
2016-05-10T09:46:13.625Z,1004.12
2016-05-10T09:47:13.629Z,1004.12
2016-05-10T09:48:13.648Z,1004.11
2016-05-10T09:49:13.650Z,1004.09
2016-05-10T09:50:13.668Z,1004.09
2016-05-10T09:51:13.670Z,1004.09
2016-05-10T09:52:13.673Z,1004.08
2016-05-10T09:53:13.692Z,1004.08
2016-05-10T09:54:13.695Z,1004.08
2016-05-10T09:55:13.697Z,1004.04
2016-05-10T09:56:13.716Z,1004
2016-05-10T09:57:13.719Z,1004.03
2016-05-10T09:58:13.721Z,1004.04
2016-05-10T09:59:13.771Z,1004.02
2016-05-10T10:00:13.742Z,1004.02
2016-05-10T10:01:13.761Z,1004.02
2016-05-10T10:02:13.763Z,1004.02
2016-05-10T10:03:13.766Z,1004.03
2016-05-10T10:04:13.784Z,1004.02
2016-05-10T10:05:13.786Z,1003.96
2016-05-10T10:06:13.805Z,1003.95
2016-05-10T10:07:13.808Z,1003.92
2016-05-10T10:08:13.810Z,1003.96
2016-05-10T10:09:13.830Z,1003.94
2016-05-10T10:10:13.832Z,1003.9
2016-05-10T10:11:13.835Z,1003.89
2016-05-10T10:12:13.853Z,1003.92
2016-05-10T10:13:13.855Z,1003.93
2016-05-10T10:14:13.874Z,1003.94
2016-05-10T10:15:13.876Z,1003.91
2016-05-10T10:16:13.895Z,1003.9
2016-05-10T10:17:13.898Z,1003.93
2016-05-10T10:18:13.900Z,1003.93
2016-05-10T10:19:13.918Z,1003.93
2016-05-10T10:20:13.905Z,1003.92
2016-05-10T10:21:13.924Z,1003.89
2016-05-10T10:22:13.926Z,1003.92
2016-05-10T10:23:13.945Z,1003.94
2016-05-10T10:24:13.947Z,1003.9
2016-05-10T10:25:13.982Z,1003.9
2016-05-10T10:26:13.968Z,1003.89
2016-05-10T10:27:13.971Z,1003.91
2016-05-10T10:28:13.990Z,1003.85
2016-05-10T10:29:14.055Z,1003.89
2016-05-10T10:30:13.995Z,1003.81
2016-05-10T10:31:14.013Z,1003.83
2016-05-10T10:32:14.016Z,1003.8
2016-05-10T10:33:14.019Z,1003.79
2016-05-10T10:34:14.036Z,1003.83
2016-05-10T10:35:14.039Z,1003.83
2016-05-10T10:36:14.058Z,1003.83
2016-05-10T10:37:14.060Z,1003.83
2016-05-10T10:38:14.063Z,1003.85
2016-05-10T10:39:14.082Z,1003.79
2016-05-10T10:40:14.084Z,1003.79
2016-05-10T10:41:14.103Z,1003.81
2016-05-10T10:42:14.105Z,1003.78
2016-05-10T10:43:14.108Z,1003.84
2016-05-10T10:44:14.127Z,1003.79
2016-05-10T10:45:14.129Z,1003.75
2016-05-10T10:46:14.132Z,1003.77
2016-05-10T10:47:14.150Z,1003.76
2016-05-10T10:48:14.152Z,1003.8
2016-05-10T10:49:14.170Z,1003.76
2016-05-10T10:50:14.174Z,1003.76
2016-05-10T10:51:14.193Z,1003.75
2016-05-10T10:52:14.195Z,1003.76
2016-05-10T10:53:14.198Z,1003.74
2016-05-10T10:54:14.200Z,1003.73
2016-05-10T10:55:14.218Z,1003.71
2016-05-10T10:56:14.220Z,1003.71
2016-05-10T10:57:14.239Z,1003.66
2016-05-10T10:58:14.242Z,1003.67
2016-05-10T10:59:14.682Z,1003.66
2016-05-10T11:00:14.264Z,1003.63
2016-05-10T11:01:14.266Z,1003.68
2016-05-10T11:02:14.269Z,1003.65
2016-05-10T11:03:14.287Z,1003.61
2016-05-10T11:04:14.290Z,1003.64
2016-05-10T11:05:14.292Z,1003.65
2016-05-10T11:06:14.311Z,1003.69
2016-05-10T11:07:14.313Z,1003.66
2016-05-10T11:08:14.331Z,1003.64
2016-05-10T11:09:14.333Z,1003.63
2016-05-10T11:10:14.336Z,1003.67
2016-05-10T11:11:14.355Z,1003.6
2016-05-10T11:12:14.358Z,1003.59
2016-05-10T11:13:14.360Z,1003.6
2016-05-10T11:14:14.379Z,1003.63
2016-05-10T11:15:14.382Z,1003.54
2016-05-10T11:16:14.399Z,1003.59
2016-05-10T11:17:14.402Z,1003.6
2016-05-10T11:18:14.405Z,1003.54
2016-05-10T11:19:14.424Z,1003.5
2016-05-10T11:20:14.426Z,1003.52
2016-05-10T11:21:14.445Z,1003.54
2016-05-10T11:22:14.448Z,1003.58
2016-05-10T11:23:14.451Z,1003.55
2016-05-10T11:24:14.468Z,1003.54
2016-05-10T11:25:14.471Z,1003.55
2016-05-10T11:26:14.474Z,1003.54
2016-05-10T11:27:14.492Z,1003.53
2016-05-10T11:28:14.495Z,1003.53
2016-05-10T11:29:14.513Z,1003.52
2016-05-10T11:30:14.515Z,1003.53
2016-05-10T11:31:14.518Z,1003.54
2016-05-10T11:32:14.520Z,1003.55
2016-05-10T11:33:14.539Z,1003.57
2016-05-10T11:34:14.557Z,1003.52
2016-05-10T11:35:14.560Z,1003.5
2016-05-10T11:36:14.563Z,1003.48
2016-05-10T11:37:14.566Z,1003.47
2016-05-10T11:38:14.583Z,1003.47
2016-05-10T11:39:14.586Z,1003.43
2016-05-10T11:40:14.589Z,1003.38
2016-05-10T11:41:14.608Z,1003.44
2016-05-10T11:42:14.611Z,1003.4
2016-05-10T11:43:14.629Z,1003.38
2016-05-10T11:44:14.646Z,1003.41
2016-05-10T11:45:14.916Z,1003.39
2016-05-10T11:46:14.653Z,1003.35
2016-05-10T11:47:14.655Z,1003.35
2016-05-10T11:48:14.658Z,1003.36
2016-05-10T11:49:14.676Z,1003.38
2016-05-10T11:50:14.679Z,1003.37
2016-05-10T11:51:14.682Z,1003.33
2016-05-10T11:52:14.699Z,1003.33
2016-05-10T11:53:14.702Z,1003.32
2016-05-10T11:54:14.705Z,1003.31
2016-05-10T11:55:14.707Z,1003.28
2016-05-10T11:56:14.726Z,1003.27
2016-05-10T11:57:14.729Z,1003.27
2016-05-10T11:58:14.731Z,1003.27
2016-05-10T11:59:14.734Z,1003.31
2016-05-10T12:00:14.737Z,1003.31
2016-05-10T12:01:14.755Z,1003.28
2016-05-10T12:02:14.758Z,1003.28
2016-05-10T12:03:14.760Z,1003.26
2016-05-10T12:04:14.763Z,1003.25
2016-05-10T12:05:14.781Z,1003.23
2016-05-10T12:06:14.784Z,1003.22
2016-05-10T12:07:14.787Z,1003.16